Time;durP1;ratioP1;P1;durP2;ratioP2;P2;SDS_P1;SDS_P2;PMS_P1;PMS_P2;Temp;Humidity;BMP_temperature;BMP_pressure;BME280_temperature;BME280_humidity;BME280_pressure;Samples;Min_cycle;Max_cycle;Signal;HPM_P1;HPM_P2
2023/06/02 00:00:00;;;;;;;6.03;2.20;;;11.80;99.90;;;;;;5072178;28;20080;-62
2023/06/02 00:02:29;;;;;;;9.13;2.75;;;11.80;99.90;;;;;;5071569;28;20024;-63
2023/06/02 00:04:57;;;;;;;8.07;2.72;;;11.80;99.90;;;;;;5072236;28;20031;-61
2023/06/02 00:07:25;;;;;;;10.32;2.30;;;11.80;99.90;;;;;;5071436;28;20021;-63
2023/06/02 00:09:51;;;;;;;6.28;1.80;;;11.80;99.90;;;;;;5054372;28;20032;-62
2023/06/02 00:12:17;;;;;;;8.55;2.22;;;11.80;99.90;;;;;;5043713;28;20025;-61
2023/06/02 00:14:43;;;;;;;8.30;2.25;;;11.80;99.90;;;;;;5070470;28;20393;-61
2023/06/02 00:17:10;;;;;;;8.60;2.78;;;11.70;99.90;;;;;;5073706;28;20028;-61
2023/06/02 00:19:42;;;;;;;9.32;2.40;;;11.80;99.90;;;;;;5039436;28;20017;-62
2023/06/02 00:22:13;;;;;;;7.20;3.17;;;11.70;99.90;;;;;;5055233;28;20112;-62
2023/06/02 00:24:40;;;;;;;8.50;2.33;;;11.70;99.90;;;;;;5055610;28;20359;-62
2023/06/02 00:27:07;;;;;;;7.50;2.20;;;11.70;99.90;;;;;;5055965;28;20462;-61
2023/06/02 00:29:32;;;;;;;8.82;2.97;;;11.70;99.90;;;;;;5055081;28;20029;-63
2023/06/02 00:31:58;;;;;;;8.27;3.00;;;11.60;99.90;;;;;;5058720;28;20326;-59
2023/06/02 00:34:24;;;;;;;9.93;2.55;;;11.70;99.90;;;;;;5075593;28;20028;-60
2023/06/02 00:36:49;;;;;;;7.90;2.53;;;11.60;99.90;;;;;;5074730;28;20054;-60
2023/06/02 00:39:15;;;;;;;7.82;2.63;;;11.70;99.90;;;;;;5075330;28;20052;-60
2023/06/02 00:41:41;;;;;;;8.27;2.30;;;11.60;99.90;;;;;;5075470;28;20051;-62
2023/06/02 00:44:06;;;;;;;8.27;2.20;;;11.70;99.90;;;;;;5074747;28;20017;-62
2023/06/02 00:46:32;;;;;;;8.80;2.78;;;11.60;99.90;;;;;;5057018;28;20033;-62
2023/06/02 00:48:57;;;;;;;11.10;2.97;;;11.70;99.90;;;;;;5075019;28;20107;-62
2023/06/02 00:51:23;;;;;;;9.07;2.60;;;11.70;99.90;;;;;;5074590;28;20029;-62
2023/06/02 00:53:50;;;;;;;7.05;2.58;;;11.70;99.90;;;;;;5056185;28;20021;-63
2023/06/02 00:56:16;;;;;;;7.78;2.58;;;11.60;99.90;;;;;;5075226;28;20059;-60
2023/06/02 00:58:45;;;;;;;9.57;2.28;;;11.70;99.90;;;;;;5074591;28;20048;-62
2023/06/02 01:01:18;;;;;;;5.70;2.30;;;11.70;99.90;;;;;;5056479;28;20052;-61
2023/06/02 01:03:46;;;;;;;10.20;3.05;;;11.70;99.90;;;;;;5074515;28;20024;-62
2023/06/02 01:06:13;;;;;;;6.10;2.45;;;11.70;99.90;;;;;;5074816;28;20032;-63
2023/06/02 01:08:40;;;;;;;12.20;2.67;;;11.60;99.90;;;;;;5074827;28;20025;-60
2023/06/02 01:11:07;;;;;;;11.38;2.85;;;11.70;99.90;;;;;;5074549;28;20020;-63
2023/06/02 01:13:33;;;;;;;4.90;2.90;;;11.60;99.90;;;;;;5056661;28;20021;-62
2023/06/02 01:15:59;;;;;;;13.10;3.65;;;11.60;99.90;;;;;;5073633;28;20021;-60
2023/06/02 01:18:29;;;;;;;7.80;2.42;;;11.60;99.90;;;;;;5073988;28;20541;-59
2023/06/02 01:21:01;;;;;;;7.88;2.72;;;11.50;99.90;;;;;;5074500;28;20032;-62
2023/06/02 01:23:36;;;;;;;7.82;2.60;;;11.50;99.90;;;;;;5058419;28;20051;-59
2023/06/02 01:26:05;;;;;;;7.88;3.38;;;11.40;99.90;;;;;;5055193;28;20150;-60
2023/06/02 01:28:31;;;;;;;9.50;2.63;;;11.40;99.90;;;;;;5059515;28;20025;-60
2023/06/02 01:31:20;;;;;;;8.90;2.85;;;11.30;99.90;;;;;;5074491;28;20552;-60
2023/06/02 01:33:55;;;;;;;10.35;3.28;;;11.30;99.90;;;;;;5072862;28;20070;-62
2023/06/02 01:36:22;;;;;;;11.02;3.22;;;11.30;99.90;;;;;;5074377;28;20060;-60
2023/06/02 01:38:49;;;;;;;8.52;3.05;;;11.30;99.90;;;;;;5073473;28;20374;-60
2023/06/02 01:41:18;;;;;;;6.95;2.70;;;11.20;99.90;;;;;;5074259;28;20029;-59
2023/06/02 01:43:44;;;;;;;7.05;2.58;;;11.20;99.90;;;;;;5073185;28;20024;-61
2023/06/02 01:46:11;;;;;;;7.97;2.40;;;11.20;99.90;;;;;;5073497;28;20108;-63
2023/06/02 01:48:36;;;;;;;10.88;2.95;;;11.10;99.90;;;;;;5073905;28;20048;-60
2023/06/02 01:51:02;;;;;;;6.32;2.58;;;11.10;99.90;;;;;;5074046;28;20060;-62
2023/06/02 01:53:28;;;;;;;7.82;2.72;;;11.10;99.90;;;;;;5073815;28;20024;-62
2023/06/02 01:55:54;;;;;;;7.00;2.25;;;11.10;99.90;;;;;;5073197;28;20024;-60
2023/06/02 01:58:21;;;;;;;9.70;2.67;;;11.10;99.90;;;;;;5073286;28;20149;-62
2023/06/02 02:00:46;;;;;;;9.18;2.70;;;11.10;99.90;;;;;;5072227;28;20049;-60
2023/06/02 02:03:12;;;;;;;8.25;3.05;;;11.00;99.90;;;;;;5073668;28;20027;-61
2023/06/02 02:05:38;;;;;;;8.93;2.95;;;11.10;99.90;;;;;;5073664;28;20039;-58
2023/06/02 02:08:04;;;;;;;10.82;2.85;;;11.10;99.90;;;;;;5073162;28;20051;-61
2023/06/02 02:10:30;;;;;;;6.35;2.53;;;11.10;99.90;;;;;;5073717;28;20052;-60
2023/06/02 02:12:56;;;;;;;6.45;2.60;;;11.10;99.90;;;;;;5072832;28;20051;-63
2023/06/02 02:15:22;;;;;;;7.75;2.75;;;11.10;99.90;;;;;;5053111;28;20423;-59
2023/06/02 02:17:49;;;;;;;6.45;2.47;;;11.00;99.90;;;;;;5053518;28;20036;-61
2023/06/02 02:20:18;;;;;;;6.88;2.67;;;11.10;99.90;;;;;;5053411;28;20061;-63
2023/06/02 02:22:45;;;;;;;7.45;2.50;;;11.10;99.90;;;;;;5052724;28;20108;-62
2023/06/02 02:25:11;;;;;;;9.80;3.08;;;11.00;99.90;;;;;;5053589;28;20021;-62
2023/06/02 02:27:37;;;;;;;10.18;3.28;;;11.00;99.90;;;;;;5053552;28;20025;-62
2023/06/02 02:30:03;;;;;;;7.93;2.20;;;11.00;99.90;;;;;;5072837;28;20366;-62
2023/06/02 02:32:30;;;;;;;4.22;1.92;;;10.90;99.90;;;;;;5072588;28;20028;-61
2023/06/02 02:34:56;;;;;;;5.80;2.50;;;10.90;99.90;;;;;;5073236;28;20025;-59
2023/06/02 02:37:22;;;;;;;6.35;2.45;;;11.00;99.90;;;;;;5072815;28;20058;-59
2023/06/02 02:39:48;;;;;;;7.82;2.40;;;10.90;99.90;;;;;;5053731;28;20087;-61
2023/06/02 02:42:13;;;;;;;7.57;2.75;;;10.90;99.90;;;;;;5072544;28;20021;-59
2023/06/02 02:44:39;;;;;;;6.72;2.63;;;10.90;99.90;;;;;;5072948;28;20020;-61
2023/06/02 02:47:05;;;;;;;10.85;2.53;;;10.90;99.90;;;;;;5072949;28;20472;-60
2023/06/02 02:49:30;;;;;;;9.00;2.00;;;10.90;99.90;;;;;;5072069;28;20025;-61
2023/06/02 02:51:56;;;;;;;5.38;1.85;;;10.90;99.90;;;;;;5073119;28;20373;-61
2023/06/02 02:54:23;;;;;;;7.90;2.47;;;10.90;99.90;;;;;;5073014;28;20032;-59
2023/06/02 02:56:50;;;;;;;7.78;2.15;;;10.80;99.90;;;;;;5053807;28;20035;-59
2023/06/02 02:59:16;;;;;;;9.55;2.05;;;10.80;99.90;;;;;;5072332;28;20052;-59
2023/06/02 03:01:44;;;;;;;7.40;2.20;;;10.80;99.90;;;;;;5072804;28;20430;-59
2023/06/02 03:04:21;;;;;;;8.45;2.20;;;10.80;99.90;;;;;;5072177;28;20021;-59
2023/06/02 03:06:49;;;;;;;9.25;1.88;;;10.80;99.90;;;;;;5072302;28;20057;-60
2023/06/02 03:09:16;;;;;;;10.75;2.28;;;10.80;99.90;;;;;;5072886;28;20419;-61
2023/06/02 03:11:42;;;;;;;5.53;1.95;;;10.80;99.90;;;;;;5072135;28;20024;-59
2023/06/02 03:14:08;;;;;;;6.53;2.00;;;10.80;99.90;;;;;;5072797;28;20020;-62
2023/06/02 03:16:34;;;;;;;5.82;2.08;;;10.80;99.90;;;;;;5072511;28;20078;-60
2023/06/02 03:19:02;;;;;;;6.68;2.38;;;10.80;99.90;;;;;;5053802;28;20099;-60
2023/06/02 03:21:31;;;;;;;9.05;2.15;;;10.80;99.90;;;;;;5071998;28;20048;-59
2023/06/02 03:23:58;;;;;;;10.93;2.78;;;10.80;99.90;;;;;;5072566;28;20099;-61
2023/06/02 03:26:26;;;;;;;8.23;1.85;;;10.70;99.90;;;;;;5071841;28;20025;-60
2023/06/02 03:28:53;;;;;;;10.32;2.20;;;10.80;99.90;;;;;;5072256;28;20029;-60
2023/06/02 03:31:19;;;;;;;8.48;2.55;;;10.70;99.90;;;;;;5071907;28;20110;-60
2023/06/02 03:33:46;;;;;;;9.55;2.30;;;10.80;99.90;;;;;;5072462;28;20052;-59
2023/06/02 03:36:12;;;;;;;9.30;2.17;;;10.70;99.90;;;;;;5072317;28;20047;-60
2023/06/02 03:38:38;;;;;;;6.38;2.20;;;10.80;99.90;;;;;;5071826;28;20021;-62
2023/06/02 03:41:03;;;;;;;8.10;2.50;;;10.80;99.90;;;;;;5071908;28;20036;-60
2023/06/02 03:43:29;;;;;;;10.80;2.33;;;10.80;99.90;;;;;;5072002;28;20469;-62
2023/06/02 03:45:55;;;;;;;12.05;2.10;;;10.80;99.90;;;;;;5071150;28;20056;-63
2023/06/02 03:48:20;;;;;;;7.22;2.47;;;10.70;99.90;;;;;;5070522;28;20024;-62
2023/06/02 03:50:46;;;;;;;7.40;1.70;;;10.70;99.90;;;;;;5072688;28;20483;-63
2023/06/02 03:53:11;;;;;;;12.18;2.45;;;10.70;99.90;;;;;;5075812;28;20034;-61
2023/06/02 03:55:37;;;;;;;7.88;2.13;;;10.70;99.90;;;;;;5076191;28;20028;-62
2023/06/02 03:58:03;;;;;;;8.07;2.13;;;10.70;99.90;;;;;;5075787;28;20055;-62
2023/06/02 04:00:29;;;;;;;7.80;2.08;;;10.80;99.90;;;;;;5075099;28;20049;-63
2023/06/02 04:02:55;;;;;;;9.60;2.10;;;10.80;99.90;;;;;;5074140;28;20358;-61
2023/06/02 04:05:21;;;;;;;5.10;2.10;;;10.70;99.90;;;;;;5063695;28;20024;-61
2023/06/02 04:07:46;;;;;;;7.72;2.38;;;10.80;99.90;;;;;;5055380;28;20323;-62
2023/06/02 04:10:12;;;;;;;8.73;1.98;;;10.80;99.90;;;;;;5074768;28;20032;-62
2023/06/02 04:12:37;;;;;;;7.68;2.08;;;10.80;99.90;;;;;;5076193;28;20543;-62
2023/06/02 04:15:03;;;;;;;11.13;2.00;;;10.80;99.90;;;;;;5060922;28;20102;-62
2023/06/02 04:17:29;;;;;;;5.43;1.60;;;10.80;99.90;;;;;;5055699;28;20032;-61
2023/06/02 04:19:55;;;;;;;13.43;1.85;;;10.70;99.90;;;;;;5055937;28;20025;-61
2023/06/02 04:22:21;;;;;;;8.10;2.17;;;10.70;99.90;;;;;;5074093;28;20029;-62
2023/06/02 04:24:46;;;;;;;5.47;1.73;;;10.80;99.90;;;;;;5075659;28;20461;-63
2023/06/02 04:27:15;;;;;;;9.60;1.90;;;10.80;99.90;;;;;;5075564;28;20032;-59
2023/06/02 04:29:41;;;;;;;5.07;1.70;;;10.80;99.90;;;;;;5074797;28;20014;-60
2023/06/02 04:32:07;;;;;;;7.85;1.90;;;10.80;99.90;;;;;;5060372;28;20051;-61
2023/06/02 04:34:33;;;;;;;10.65;1.83;;;10.80;99.90;;;;;;5055024;28;20067;-60
2023/06/02 04:36:58;;;;;;;10.68;2.20;;;10.80;99.90;;;;;;5070854;28;20107;-61
2023/06/02 04:39:24;;;;;;;9.30;2.20;;;10.90;99.90;;;;;;5057204;28;20028;-60
2023/06/02 04:41:50;;;;;;;7.93;1.98;;;10.90;99.90;;;;;;5074963;28;20489;-60
2023/06/02 04:44:18;;;;;;;8.70;1.80;;;11.00;99.90;;;;;;5075443;28;20025;-60
2023/06/02 04:46:44;;;;;;;8.13;1.67;;;11.00;99.90;;;;;;5074842;28;20028;-61
2023/06/02 04:49:10;;;;;;;5.30;1.88;;;11.00;99.90;;;;;;5056404;28;20016;-61
2023/06/02 04:51:37;;;;;;;6.82;2.03;;;11.00;99.90;;;;;;5075590;28;20482;-61
2023/06/02 04:54:03;;;;;;;10.00;2.80;;;11.00;99.90;;;;;;5074593;28;20107;-62
2023/06/02 04:56:30;;;;;;;9.90;3.83;;;11.10;99.90;;;;;;5074730;28;20028;-61
2023/06/02 04:58:56;;;;;;;12.85;4.15;;;11.10;99.90;;;;;;5074955;28;20043;-61
2023/06/02 05:01:22;;;;;;;8.88;3.47;;;11.20;99.90;;;;;;5074836;28;20067;-60
2023/06/02 05:03:48;;;;;;;8.32;2.53;;;11.20;99.90;;;;;;5073372;28;20465;-60
2023/06/02 05:06:14;;;;;;;9.63;2.00;;;11.20;99.90;;;;;;5075157;28;20056;-60
2023/06/02 05:08:39;;;;;;;8.13;3.35;;;11.30;99.90;;;;;;5074385;28;20018;-61
2023/06/02 05:11:06;;;;;;;8.52;1.80;;;11.20;99.90;;;;;;5074082;28;20035;-62
2023/06/02 05:13:31;;;;;;;10.63;2.28;;;11.30;99.90;;;;;;5072794;28;20120;-61
2023/06/02 05:15:57;;;;;;;5.28;1.75;;;11.40;99.90;;;;;;5054881;28;20021;-62
2023/06/02 05:18:23;;;;;;;10.82;2.35;;;11.40;99.90;;;;;;5054576;28;20047;-62
2023/06/02 05:20:51;;;;;;;8.10;1.70;;;11.40;99.90;;;;;;5054572;28;20175;-62
2023/06/02 05:23:16;;;;;;;6.25;1.98;;;11.40;99.90;;;;;;5054473;28;20017;-61
2023/06/02 05:25:42;;;;;;;6.82;1.88;;;11.50;99.90;;;;;;5053956;28;20067;-62
2023/06/02 05:28:08;;;;;;;4.30;1.77;;;11.50;99.90;;;;;;5054888;28;20052;-61
2023/06/02 05:30:35;;;;;;;7.25;1.75;;;11.50;99.90;;;;;;5055959;28;20063;-61
2023/06/02 05:33:00;;;;;;;6.45;2.03;;;11.60;99.90;;;;;;5073297;28;20440;-61
2023/06/02 05:35:26;;;;;;;6.88;1.88;;;11.60;99.90;;;;;;5074465;28;20024;-60
2023/06/02 05:37:51;;;;;;;9.27;2.13;;;11.70;99.90;;;;;;5055795;28;20031;-59
2023/06/02 05:40:17;;;;;;;5.90;1.63;;;11.60;99.90;;;;;;5074059;28;20090;-61
2023/06/02 05:42:43;;;;;;;11.75;1.92;;;11.70;99.90;;;;;;5074493;28;20519;-61
2023/06/02 05:45:09;;;;;;;9.70;1.85;;;11.70;99.90;;;;;;5073087;28;20396;-62
2023/06/02 05:47:34;;;;;;;11.18;2.05;;;11.70;99.90;;;;;;5073934;28;20039;-62
2023/06/02 05:50:00;;;;;;;6.68;2.10;;;11.80;99.90;;;;;;5054231;28;20025;-61
2023/06/02 05:52:26;;;;;;;8.93;2.42;;;11.80;99.90;;;;;;5053724;28;20021;-61
2023/06/02 05:54:52;;;;;;;7.60;2.00;;;11.80;99.90;;;;;;5054011;28;20191;-61
2023/06/02 05:57:18;;;;;;;5.40;1.60;;;11.80;99.90;;;;;;5068702;28;20029;-62
2023/06/02 05:59:43;;;;;;;8.27;2.63;;;11.90;99.90;;;;;;5072772;28;20404;-62
2023/06/02 06:02:09;;;;;;;8.52;3.05;;;12.00;99.90;;;;;;5055535;28;20035;-61
2023/06/02 06:04:35;;;;;;;11.68;2.78;;;12.00;99.90;;;;;;5066409;28;20024;-61
2023/06/02 06:07:01;;;;;;;8.57;2.42;;;12.00;99.90;;;;;;5085594;28;20460;-61
2023/06/02 06:09:26;;;;;;;9.43;1.90;;;12.10;99.90;;;;;;5064705;28;20025;-61
2023/06/02 06:11:52;;;;;;;7.75;2.60;;;12.10;99.90;;;;;;5068722;28;20108;-59
2023/06/02 06:14:18;;;;;;;8.00;2.30;;;12.20;99.90;;;;;;5065396;28;20020;-60
2023/06/02 06:16:43;;;;;;;7.80;2.25;;;12.10;99.90;;;;;;5065869;28;20021;-61
2023/06/02 06:19:10;;;;;;;5.60;1.92;;;12.10;99.90;;;;;;5055944;28;20033;-60
2023/06/02 06:21:36;;;;;;;9.80;2.40;;;12.10;99.90;;;;;;5066651;28;20477;-61
2023/06/02 06:24:03;;;;;;;8.32;2.35;;;12.10;99.90;;;;;;5053334;28;20049;-60
2023/06/02 06:26:29;;;;;;;7.93;1.67;;;12.10;99.90;;;;;;5065947;28;20036;-60
2023/06/02 06:28:54;;;;;;;12.07;2.72;;;12.20;99.90;;;;;;5072248;28;20017;-60
2023/06/02 06:31:20;;;;;;;6.50;1.92;;;12.20;99.90;;;;;;5056150;28;20024;-60
2023/06/02 06:33:46;;;;;;;7.22;2.42;;;12.30;99.90;;;;;;5034729;28;20024;-60
2023/06/02 06:36:12;;;;;;;6.55;2.20;;;12.30;99.90;;;;;;5052410;28;20025;-59
2023/06/02 06:38:38;;;;;;;7.20;1.75;;;12.30;99.90;;;;;;5046984;28;20028;-59
2023/06/02 06:41:04;;;;;;;7.22;1.80;;;12.30;99.90;;;;;;5072862;28;20032;-61
2023/06/02 06:43:30;;;;;;;11.68;1.75;;;12.40;99.90;;;;;;5072399;28;20103;-60
2023/06/02 06:45:55;;;;;;;6.15;1.85;;;12.50;99.90;;;;;;5072979;28;20109;-59
2023/06/02 06:48:21;;;;;;;3.88;1.67;;;12.50;99.90;;;;;;5071922;28;20506;-60
2023/06/02 06:50:49;;;;;;;14.82;2.20;;;12.50;99.90;;;;;;5066229;28;20025;-59
2023/06/02 06:53:15;;;;;;;5.97;2.13;;;12.60;99.90;;;;;;5059919;28;20028;-60
2023/06/02 06:55:41;;;;;;;5.47;1.80;;;12.60;99.90;;;;;;5053386;28;20029;-61
2023/06/02 06:58:06;;;;;;;14.43;2.45;;;12.60;99.90;;;;;;5059582;28;20023;-61
2023/06/02 07:00:32;;;;;;;8.27;2.20;;;12.60;99.90;;;;;;5062475;28;20040;-60
2023/06/02 07:02:58;;;;;;;6.47;2.05;;;12.60;99.90;;;;;;5063196;28;20028;-61
2023/06/02 07:05:23;;;;;;;9.00;2.08;;;12.60;99.90;;;;;;5071955;28;20044;-61
2023/06/02 07:07:49;;;;;;;9.05;2.22;;;12.70;99.90;;;;;;5070541;28;20024;-61
2023/06/02 07:10:16;;;;;;;9.60;2.10;;;12.80;99.90;;;;;;5071099;28;20097;-59
2023/06/02 07:12:42;;;;;;;6.75;1.83;;;12.90;99.90;;;;;;5062744;28;20028;-60
2023/06/02 07:15:08;;;;;;;7.45;1.92;;;12.90;99.90;;;;;;5071868;28;20023;-60
2023/06/02 07:17:33;;;;;;;11.13;1.98;;;12.90;99.90;;;;;;5063601;28;20049;-60
2023/06/02 07:19:59;;;;;;;8.07;1.95;;;12.90;99.90;;;;;;5062246;28;20041;-60
2023/06/02 07:22:25;;;;;;;6.97;2.15;;;13.00;99.90;;;;;;5066822;28;20039;-62
2023/06/02 07:24:51;;;;;;;6.03;1.75;;;13.10;99.90;;;;;;5065154;28;20369;-60
2023/06/02 07:27:17;;;;;;;10.63;2.45;;;13.20;99.90;;;;;;5072221;28;20028;-60
2023/06/02 07:29:43;;;;;;;9.98;2.85;;;13.30;99.90;;;;;;5060060;28;20024;-60
2023/06/02 07:32:09;;;;;;;10.65;2.60;;;13.40;99.90;;;;;;5052357;28;20483;-62
2023/06/02 07:34:35;;;;;;;12.50;2.58;;;13.50;99.90;;;;;;5052746;28;20100;-61
2023/06/02 07:37:02;;;;;;;11.90;2.45;;;13.40;99.90;;;;;;5052748;28;20378;-62
2023/06/02 07:39:28;;;;;;;13.00;2.17;;;13.30;99.90;;;;;;5051974;28;20091;-60
2023/06/02 07:41:54;;;;;;;6.50;2.30;;;13.20;99.90;;;;;;5052635;28;20068;-60
2023/06/02 07:44:19;;;;;;;8.75;1.98;;;13.20;99.90;;;;;;5054512;28;20056;-61
2023/06/02 07:46:45;;;;;;;7.68;1.70;;;13.30;99.90;;;;;;5068974;28;20481;-60
2023/06/02 07:49:12;;;;;;;9.82;2.00;;;13.40;99.90;;;;;;5072612;28;20060;-58
2023/06/02 07:51:38;;;;;;;13.35;2.42;;;13.50;99.90;;;;;;5066444;28;20033;-59
2023/06/02 07:54:05;;;;;;;9.05;2.45;;;13.60;99.90;;;;;;5058968;28;20020;-59
2023/06/02 07:56:31;;;;;;;7.40;2.13;;;13.70;99.90;;;;;;5070668;28;20059;-58
2023/06/02 07:58:56;;;;;;;5.93;2.08;;;13.80;99.80;;;;;;5070229;28;20461;-56
2023/06/02 08:01:22;;;;;;;5.78;1.90;;;13.90;99.70;;;;;;5071393;28;20122;-55
2023/06/02 08:03:47;;;;;;;8.50;2.20;;;13.90;99.70;;;;;;5072346;28;20404;-54
2023/06/02 08:06:13;;;;;;;10.70;2.40;;;13.90;99.60;;;;;;5071693;28;20108;-56
2023/06/02 08:08:39;;;;;;;7.80;2.03;;;13.90;99.50;;;;;;5072009;28;20472;-56
2023/06/02 08:11:05;;;;;;;10.60;2.50;;;13.90;99.60;;;;;;5060673;28;20032;-57
2023/06/02 08:13:30;;;;;;;7.43;2.75;;;13.90;99.80;;;;;;5051938;28;20125;-56
2023/06/02 08:15:56;;;;;;;4.75;2.28;;;14.10;99.90;;;;;;5056753;28;20476;-54
2023/06/02 08:18:22;;;;;;;10.02;2.95;;;14.20;99.90;;;;;;5072118;28;20029;-57
2023/06/02 08:20:47;;;;;;;4.70;1.85;;;14.30;99.90;;;;;;5056886;28;20478;-58
2023/06/02 08:23:13;;;;;;;8.15;1.92;;;14.30;99.60;;;;;;5052154;28;20021;-56
2023/06/02 08:25:40;;;;;;;13.60;2.85;;;14.30;99.50;;;;;;5062657;28;20056;-58
2023/06/02 08:28:06;;;;;;;7.85;2.20;;;14.20;99.10;;;;;;5071560;28;20016;-55
2023/06/02 08:30:35;;;;;;;11.88;2.88;;;14.30;99.70;;;;;;5053993;28;20040;-56
2023/06/02 08:33:02;;;;;;;8.70;2.35;;;14.40;99.70;;;;;;5072017;28;20330;-57
2023/06/02 08:35:29;;;;;;;16.52;3.22;;;14.50;99.50;;;;;;5051570;28;20086;-55
2023/06/02 08:37:55;;;;;;;11.77;2.67;;;14.50;99.00;;;;;;5052445;28;20017;-58
2023/06/02 08:40:25;;;;;;;6.75;2.40;;;14.60;99.00;;;;;;5055060;28;20033;-56
2023/06/02 08:42:51;;;;;;;6.18;2.20;;;14.70;99.00;;;;;;5073926;28;20032;-58
2023/06/02 08:45:20;;;;;;;6.38;2.47;;;14.80;99.20;;;;;;5044734;28;20024;-58
2023/06/02 08:47:51;;;;;;;6.18;2.08;;;15.00;98.90;;;;;;5074607;28;20084;-57
2023/06/02 08:50:18;;;;;;;6.32;2.60;;;15.10;98.90;;;;;;5075292;28;20024;-57
2023/06/02 08:52:47;;;;;;;9.25;2.25;;;15.20;98.60;;;;;;5075234;28;20027;-57
2023/06/02 08:55:13;;;;;;;7.97;2.05;;;15.40;98.30;;;;;;5063653;28;20535;-58
2023/06/02 08:57:38;;;;;;;9.63;3.05;;;15.50;98.10;;;;;;5070160;28;20017;-60
2023/06/02 09:00:05;;;;;;;12.98;3.03;;;15.50;97.40;;;;;;5063494;28;20090;-58
2023/06/02 09:02:31;;;;;;;7.68;1.88;;;15.50;97.60;;;;;;5074403;28;20021;-59
2023/06/02 09:04:56;;;;;;;7.43;2.30;;;15.50;97.60;;;;;;5074076;28;20431;-58
2023/06/02 09:07:22;;;;;;;9.55;2.50;;;15.50;97.50;;;;;;5067290;28;20120;-57
2023/06/02 09:09:51;;;;;;;7.30;2.30;;;15.50;97.20;;;;;;5074391;28;20021;-58
2023/06/02 09:12:18;;;;;;;9.00;2.72;;;15.50;97.00;;;;;;5069818;28;20031;-56
2023/06/02 09:14:48;;;;;;;8.05;3.42;;;15.50;97.10;;;;;;5054802;28;20474;-54
2023/06/02 09:17:29;;;;;;;8.88;2.83;;;15.40;96.90;;;;;;5063920;28;20456;-56
2023/06/02 09:19:58;;;;;;;6.78;3.13;;;15.30;97.30;;;;;;5074592;28;20091;-58
2023/06/02 09:22:24;;;;;;;6.72;2.85;;;15.50;97.30;;;;;;5073112;28;20021;-56
2023/06/02 09:24:53;;;;;;;8.35;2.78;;;15.60;97.20;;;;;;5073743;28;20028;-56
2023/06/02 09:27:19;;;;;;;11.05;3.15;;;15.60;97.10;;;;;;5072914;28;20020;-58
2023/06/02 09:29:45;;;;;;;8.80;2.60;;;15.70;96.70;;;;;;5074520;28;20078;-56
2023/06/02 09:32:17;;;;;;;5.93;2.28;;;15.60;96.80;;;;;;5074270;28;20020;-56
2023/06/02 09:34:48;;;;;;;6.25;2.40;;;15.60;96.90;;;;;;5074692;28;20024;-53
2023/06/02 09:37:15;;;;;;;7.45;2.67;;;15.70;97.00;;;;;;5056172;28;20469;-58
2023/06/02 09:39:53;;;;;;;8.43;3.25;;;15.80;96.40;;;;;;5074610;28;20036;-52
2023/06/02 09:42:19;;;;;;;9.48;3.30;;;16.00;95.80;;;;;;5056610;28;20028;-57
2023/06/02 09:45:05;;;;;;;5.75;2.50;;;15.90;96.10;;;;;;5073874;28;20066;-56
2023/06/02 09:47:37;;;;;;;10.60;3.15;;;16.00;96.20;;;;;;5074363;28;20056;-56
2023/06/02 09:50:03;;;;;;;8.35;3.17;;;15.90;96.60;;;;;;5073655;28;20024;-56
2023/06/02 09:52:28;;;;;;;8.13;2.60;;;16.00;96.30;;;;;;5073465;28;20025;-55
2023/06/02 09:54:54;;;;;;;10.82;3.08;;;16.00;96.10;;;;;;5074010;28;20024;-58
2023/06/02 09:57:20;;;;;;;9.55;3.60;;;16.10;96.00;;;;;;5073820;28;20024;-56
2023/06/02 09:59:46;;;;;;;9.73;3.38;;;16.10;96.30;;;;;;5073080;28;20490;-54
2023/06/02 10:02:12;;;;;;;14.30;3.03;;;16.20;96.20;;;;;;5073836;28;20405;-54
2023/06/02 10:04:38;;;;;;;8.35;2.90;;;16.40;96.10;;;;;;5073731;28;20070;-57
2023/06/02 10:07:31;;;;;;;11.32;3.75;;;16.70;96.10;;;;;;5055246;28;20119;-54
2023/06/02 10:09:56;;;;;;;9.48;3.13;;;16.80;95.60;;;;;;5073641;28;20029;-53
2023/06/02 10:12:32;;;;;;;10.13;3.47;;;16.90;94.80;;;;;;5055027;28;20028;-52
2023/06/02 10:15:30;;;;;;;12.65;3.75;;;17.00;94.90;;;;;;5073749;28;20036;-58
2023/06/02 10:18:02;;;;;;;11.68;3.03;;;16.90;94.30;;;;;;5073592;28;20044;-58
2023/06/02 10:20:38;;;;;;;9.35;3.20;;;16.90;94.60;;;;;;5072679;28;20048;-55
2023/06/02 10:23:27;;;;;;;5.30;2.40;;;16.70;94.60;;;;;;5073568;28;20012;-58
2023/06/02 10:26:13;;;;;;;9.02;2.58;;;16.60;94.70;;;;;;5073254;28;20024;-57
2023/06/02 10:28:40;;;;;;;8.32;3.22;;;16.70;94.80;;;;;;5073284;28;20027;-55
2023/06/02 10:31:11;;;;;;;7.07;2.80;;;16.60;94.80;;;;;;5055382;28;20485;-56
2023/06/02 10:33:45;;;;;;;9.52;3.28;;;16.60;94.80;;;;;;5072503;28;20104;-57
2023/06/02 10:36:13;;;;;;;13.00;3.67;;;16.70;95.30;;;;;;5073097;28;20473;-55
2023/06/02 10:38:39;;;;;;;5.38;2.33;;;17.00;95.30;;;;;;5073107;28;20084;-57
2023/06/02 10:41:05;;;;;;;8.80;3.50;;;17.20;94.80;;;;;;5072371;28;20115;-53
2023/06/02 10:43:33;;;;;;;9.05;3.83;;;17.40;94.00;;;;;;5073208;28;20104;-57
2023/06/02 10:46:21;;;;;;;10.20;3.28;;;17.50;93.90;;;;;;5073116;28;20050;-57
2023/06/02 10:48:48;;;;;;;7.97;3.30;;;17.60;93.80;;;;;;5054377;28;20025;-57
2023/06/02 10:51:14;;;;;;;8.38;2.97;;;17.70;93.70;;;;;;5073144;28;20554;-55
2023/06/02 10:53:58;;;;;;;7.95;3.25;;;17.90;93.30;;;;;;5072925;28;20050;-58
2023/06/02 10:56:35;;;;;;;11.43;3.22;;;17.90;93.10;;;;;;5072359;28;20021;-55
2023/06/02 10:59:02;;;;;;;7.13;3.17;;;18.00;92.90;;;;;;5072644;28;20040;-56
2023/06/02 11:01:46;;;;;;;10.80;3.40;;;17.90;92.50;;;;;;5071178;28;20052;-55
2023/06/02 11:04:32;;;;;;;8.95;3.03;;;17.90;93.00;;;;;;5072852;28;20037;-57
2023/06/02 11:07:18;;;;;;;9.25;3.20;;;18.00;92.50;;;;;;5055173;28;20385;-59
2023/06/02 11:09:45;;;;;;;8.10;3.33;;;18.00;92.30;;;;;;5071978;28;20056;-57
2023/06/02 11:12:11;;;;;;;12.30;3.60;;;18.10;92.30;;;;;;5072880;28;20016;-56
2023/06/02 11:15:00;;;;;;;10.18;3.33;;;18.10;92.30;;;;;;5072719;28;20020;-57
2023/06/02 11:17:33;;;;;;;8.15;2.85;;;18.20;92.30;;;;;;5072024;28;20107;-57
2023/06/02 11:19:59;;;;;;;9.57;3.50;;;18.30;92.00;;;;;;5072592;28;20477;-57
2023/06/02 11:22:27;;;;;;;11.55;3.70;;;18.40;92.00;;;;;;5072643;28;20028;-57
2023/06/02 11:24:53;;;;;;;8.75;3.55;;;18.50;92.60;;;;;;5072629;28;20017;-57
2023/06/02 11:27:20;;;;;;;10.77;3.45;;;18.60;92.00;;;;;;5072672;28;20381;-57
2023/06/02 11:30:02;;;;;;;8.88;2.95;;;18.60;91.60;;;;;;5071882;28;20025;-58
2023/06/02 11:32:27;;;;;;;11.43;3.80;;;18.60;91.50;;;;;;5072542;28;20032;-56
2023/06/02 11:35:00;;;;;;;10.57;3.20;;;18.60;91.40;;;;;;5072544;28;20017;-57
2023/06/02 11:37:26;;;;;;;8.82;2.60;;;18.80;91.30;;;;;;5071847;28;20024;-57
2023/06/02 11:39:56;;;;;;;10.52;3.67;;;18.70;90.80;;;;;;5072273;28;20031;-58
2023/06/02 11:42:43;;;;;;;8.55;3.08;;;18.50;90.70;;;;;;5072505;28;20508;-56
2023/06/02 11:45:22;;;;;;;10.30;4.55;;;18.40;91.00;;;;;;5071686;28;20506;-57
2023/06/02 11:47:56;;;;;;;9.55;3.28;;;18.40;91.30;;;;;;5072370;28;20031;-57
2023/06/02 11:50:22;;;;;;;9.38;3.85;;;18.40;91.40;;;;;;5072396;28;20415;-57
2023/06/02 11:52:48;;;;;;;9.27;3.33;;;18.50;91.40;;;;;;5071605;28;20491;-59
2023/06/02 11:55:15;;;;;;;10.95;3.60;;;18.50;91.20;;;;;;5054359;28;20104;-57
2023/06/02 11:57:43;;;;;;;9.75;3.25;;;18.50;91.10;;;;;;5071484;28;20028;-58
2023/06/02 12:00:15;;;;;;;10.50;3.92;;;18.50;91.20;;;;;;5072001;28;20041;-58
2023/06/02 12:02:52;;;;;;;9.40;3.55;;;18.60;91.80;;;;;;5072355;28;20104;-58
2023/06/02 12:05:29;;;;;;;11.45;3.78;;;18.70;91.40;;;;;;5071467;28;20022;-57
2023/06/02 12:07:56;;;;;;;10.35;3.03;;;18.80;91.30;;;;;;5072310;28;20032;-57
2023/06/02 12:10:29;;;;;;;11.68;3.88;;;18.90;90.70;;;;;;5071964;28;20021;-60
2023/06/02 12:12:55;;;;;;;11.68;3.50;;;18.90;90.70;;;;;;5073667;28;20019;-57
2023/06/02 12:15:21;;;;;;;9.23;3.50;;;18.90;90.80;;;;;;5075794;28;20103;-58
2023/06/02 12:17:47;;;;;;;10.32;4.00;;;19.00;90.80;;;;;;5058140;28;20484;-59
2023/06/02 12:20:12;;;;;;;11.57;3.40;;;19.10;90.70;;;;;;5075038;28;20036;-56
2023/06/02 12:22:54;;;;;;;8.88;3.58;;;19.10;90.70;;;;;;5075864;28;20444;-59
2023/06/02 12:25:20;;;;;;;9.45;3.88;;;19.20;90.80;;;;;;5075782;28;20100;-59
2023/06/02 12:27:46;;;;;;;7.13;3.50;;;19.40;91.20;;;;;;5075179;28;20103;-57
2023/06/02 12:30:14;;;;;;;9.13;4.00;;;19.70;91.50;;;;;;5075635;28;20024;-55
2023/06/02 12:32:39;;;;;;;9.10;3.38;;;19.90;90.90;;;;;;5057782;28;20016;-56
2023/06/02 12:35:05;;;;;;;11.63;3.78;;;20.10;89.50;;;;;;5074958;28;20074;-55
2023/06/02 12:37:31;;;;;;;11.10;4.00;;;20.10;88.80;;;;;;5075362;28;20025;-57
2023/06/02 12:39:57;;;;;;;9.23;3.47;;;20.00;89.50;;;;;;5074848;28;20039;-59
2023/06/02 12:42:23;;;;;;;11.77;3.83;;;19.80;89.30;;;;;;5075730;28;20582;-58
2023/06/02 12:44:49;;;;;;;8.63;4.00;;;19.60;89.60;;;;;;5075526;28;20107;-58